Time;durP1;ratioP1;P1;durP2;ratioP2;P2;SDS_P1;SDS_P2;PMS_P1;PMS_P2;Temp;Humidity;BMP_temperature;BMP_pressure;BME280_temperature;BME280_humidity;BME280_pressure;Samples;Min_cycle;Max_cycle;Signal;HPM_P1;HPM_P2
2021/10/02 00:31:32;;;;;;;15.57;12.33;;;14.60;99.90;;;;;;6249878;28;20475;-63
2021/10/02 00:35:02;;;;;;;14.83;12.50;;;14.60;99.90;;;;;;6250188;28;20476;-63
2021/10/02 00:41:55;;;;;;;14.33;12.83;;;14.60;99.90;;;;;;6216682;28;20967;-63
2021/10/02 00:44:58;;;;;;;14.67;13.07;;;14.50;99.90;;;;;;6254699;28;20486;-63
2021/10/02 00:48:01;;;;;;;14.97;13.00;;;14.50;99.90;;;;;;6254324;28;20485;-63
2021/10/02 00:51:06;;;;;;;16.93;14.03;;;14.60;99.90;;;;;;6254020;28;20475;-63
2021/10/02 00:54:09;;;;;;;14.67;13.17;;;14.50;99.90;;;;;;6253637;28;20467;-63
2021/10/02 00:57:13;;;;;;;15.80;13.10;;;14.50;99.90;;;;;;6253432;28;20451;-63
2021/10/02 01:00:16;;;;;;;18.70;13.83;;;14.60;99.90;;;;;;6253644;28;20454;-63
2021/10/02 01:03:35;;;;;;;16.40;12.70;;;14.50;99.90;;;;;;6253471;28;20756;-63
2021/10/02 01:06:47;;;;;;;15.93;12.93;;;14.50;99.90;;;;;;6253819;28;20474;-63
2021/10/02 01:10:06;;;;;;;17.30;13.23;;;14.40;99.90;;;;;;6253640;28;20471;-64
2021/10/02 01:13:19;;;;;;;14.90;13.30;;;14.30;99.90;;;;;;6253468;28;20525;-64
2021/10/02 01:16:29;;;;;;;16.17;13.43;;;14.30;99.90;;;;;;6253516;28;20475;-63
2021/10/02 01:19:49;;;;;;;17.17;13.30;;;14.20;99.90;;;;;;6253184;28;20471;-63
2021/10/02 01:23:27;;;;;;;16.50;14.00;;;14.10;99.90;;;;;;6253220;28;20486;-63
2021/10/02 01:26:49;;;;;;;19.97;15.17;;;14.10;99.90;;;;;;6243270;28;20474;-63
2021/10/02 01:29:55;;;;;;;19.40;14.93;;;14.00;99.90;;;;;;6253361;28;20978;-64
2021/10/02 01:33:06;;;;;;;16.10;13.50;;;14.00;99.90;;;;;;6253666;28;20475;-63
2021/10/02 01:49:48;;;;;;;17.60;13.80;;;13.80;99.90;;;;;;6252761;28;20463;-63
2021/10/02 01:52:52;;;;;;;16.80;13.73;;;13.70;99.90;;;;;;6252755;28;20490;-63
2021/10/02 01:55:57;;;;;;;16.43;14.70;;;13.60;99.90;;;;;;6252259;28;20478;-63
2021/10/02 01:59:01;;;;;;;16.10;14.13;;;13.50;99.90;;;;;;6252155;28;20839;-63
2021/10/02 02:02:07;;;;;;;16.87;13.90;;;13.50;99.90;;;;;;6252254;28;20474;-63
2021/10/02 02:05:12;;;;;;;20.10;14.97;;;13.40;99.90;;;;;;6252942;28;20533;-63
2021/10/02 02:08:19;;;;;;;21.33;14.93;;;13.30;99.90;;;;;;6252163;28;20479;-63
2021/10/02 02:11:24;;;;;;;16.13;13.70;;;13.20;99.90;;;;;;6252085;28;20475;-63
2021/10/02 02:14:28;;;;;;;18.33;15.13;;;13.10;99.90;;;;;;6252069;28;20477;-63
2021/10/02 02:17:36;;;;;;;17.47;14.30;;;13.10;99.90;;;;;;6251857;28;20541;-63
2021/10/02 02:20:42;;;;;;;23.50;16.67;;;13.10;99.90;;;;;;6252030;28;20483;-63
2021/10/02 02:23:45;;;;;;;18.27;14.60;;;13.00;99.90;;;;;;6252160;28;20482;-63
2021/10/02 02:26:49;;;;;;;20.00;16.20;;;12.90;99.90;;;;;;6252381;28;20471;-63
2021/10/02 02:29:52;;;;;;;18.93;15.87;;;12.80;99.90;;;;;;6252384;28;20483;-63
2021/10/02 02:32:57;;;;;;;17.90;16.00;;;12.80;99.90;;;;;;6247518;28;20812;-63
2021/10/02 02:36:00;;;;;;;20.60;16.53;;;12.80;99.90;;;;;;6252255;28;20479;-63
2021/10/02 02:39:03;;;;;;;17.13;14.97;;;12.80;99.90;;;;;;6251782;28;20480;-63
2021/10/02 02:42:07;;;;;;;17.53;14.83;;;12.80;99.90;;;;;;6251593;28;20513;-63
2021/10/02 02:45:12;;;;;;;15.50;13.13;;;12.80;99.90;;;;;;6251392;28;20552;-63
2021/10/02 02:48:22;;;;;;;18.27;14.90;;;12.80;99.90;;;;;;6251007;28;20474;-62
2021/10/02 02:51:33;;;;;;;19.07;14.70;;;12.80;99.90;;;;;;6250993;28;20493;-63
2021/10/02 02:54:41;;;;;;;15.73;13.40;;;12.70;99.90;;;;;;6251009;28;20812;-63
2021/10/02 02:57:49;;;;;;;18.03;14.10;;;12.70;99.90;;;;;;6251277;28;20463;-63
2021/10/02 03:00:55;;;;;;;18.97;14.13;;;12.70;99.90;;;;;;6250819;28;20471;-63
2021/10/02 03:04:02;;;;;;;17.07;13.70;;;12.70;99.90;;;;;;6250494;28;20897;-63
2021/10/02 03:07:08;;;;;;;16.83;14.97;;;12.60;99.90;;;;;;6251151;28;20467;-62
2021/10/02 03:10:13;;;;;;;18.43;13.83;;;12.60;99.90;;;;;;6251306;28;20475;-63
2021/10/02 03:13:20;;;;;;;16.57;13.07;;;12.60;99.90;;;;;;6251106;28;20974;-62
2021/10/02 03:16:25;;;;;;;15.30;13.67;;;12.60;99.90;;;;;;6250920;28;20478;-63
2021/10/02 03:19:31;;;;;;;15.67;12.73;;;12.60;99.90;;;;;;6250817;28;20467;-63
2021/10/02 03:22:35;;;;;;;18.03;14.03;;;12.60;99.90;;;;;;6250899;28;20803;-63
2021/10/02 03:25:39;;;;;;;17.33;13.07;;;12.60;99.90;;;;;;6250588;28;20823;-63
2021/10/02 03:28:44;;;;;;;15.37;13.27;;;12.50;99.90;;;;;;6250743;28;20487;-63
2021/10/02 03:31:48;;;;;;;19.00;14.10;;;12.50;99.90;;;;;;6250321;28;20556;-63
2021/10/02 03:34:53;;;;;;;17.80;14.07;;;12.40;99.90;;;;;;6246513;28;20466;-63
2021/10/02 03:37:56;;;;;;;19.63;14.47;;;12.40;99.90;;;;;;6250204;28;20470;-63
2021/10/02 03:41:01;;;;;;;18.23;13.97;;;12.40;99.90;;;;;;6250222;28;20470;-63
2021/10/02 03:44:04;;;;;;;17.33;13.13;;;12.40;99.90;;;;;;6252175;28;20549;-63
2021/10/02 03:47:08;;;;;;;18.10;13.73;;;12.30;99.90;;;;;;6251962;28;20812;-62
2021/10/02 03:50:13;;;;;;;19.83;14.07;;;12.30;99.90;;;;;;6251404;28;20485;-64
2021/10/02 03:53:16;;;;;;;17.80;13.17;;;12.30;99.90;;;;;;6251226;28;20471;-64
2021/10/02 03:56:19;;;;;;;20.57;14.80;;;12.30;99.90;;;;;;6250665;28;20801;-64
2021/10/02 03:59:23;;;;;;;17.07;14.10;;;12.30;99.90;;;;;;6249892;28;20490;-63
2021/10/02 04:02:26;;;;;;;17.60;13.27;;;12.20;99.90;;;;;;6249899;28;20498;-64
2021/10/02 04:05:31;;;;;;;14.87;12.83;;;12.20;99.90;;;;;;6249855;28;20547;-63
2021/10/02 04:08:34;;;;;;;16.27;14.13;;;12.20;99.90;;;;;;6250378;28;20506;-63
2021/10/02 04:11:37;;;;;;;18.70;14.60;;;12.20;99.90;;;;;;6249874;28;20498;-63
2021/10/02 04:14:41;;;;;;;14.70;13.03;;;12.10;99.90;;;;;;6253516;28;20471;-63
2021/10/02 04:17:44;;;;;;;17.83;13.53;;;12.10;99.90;;;;;;6254621;28;20475;-63
2021/10/02 04:20:48;;;;;;;15.63;13.57;;;12.10;99.90;;;;;;6254402;28;20479;-64
2021/10/02 04:23:51;;;;;;;17.00;12.60;;;12.10;99.90;;;;;;6255235;28;20498;-63
2021/10/02 04:26:58;;;;;;;16.77;13.00;;;12.00;99.90;;;;;;6255355;28;20463;-64
2021/10/02 04:30:01;;;;;;;17.70;13.60;;;12.00;99.90;;;;;;6254449;28;20789;-64
2021/10/02 04:33:04;;;;;;;17.17;13.03;;;12.00;99.90;;;;;;6254361;28;20501;-64
2021/10/02 04:36:09;;;;;;;17.20;13.40;;;12.00;99.90;;;;;;6254037;28;20875;-63
2021/10/02 04:39:12;;;;;;;16.90;13.90;;;12.00;99.90;;;;;;6250203;28;20459;-63
2021/10/02 04:42:15;;;;;;;15.20;13.53;;;12.00;99.90;;;;;;6254313;28;20478;-63
2021/10/02 04:45:18;;;;;;;17.13;14.20;;;11.90;99.90;;;;;;6254243;28;20439;-63
2021/10/02 04:48:24;;;;;;;16.13;13.67;;;11.90;99.90;;;;;;6254045;28;20439;-63
2021/10/02 04:51:29;;;;;;;19.50;15.10;;;11.80;99.90;;;;;;6253566;28;20482;-63
2021/10/02 04:54:32;;;;;;;19.00;14.60;;;11.80;99.90;;;;;;6254507;28;20442;-63
2021/10/02 04:57:35;;;;;;;18.67;14.13;;;11.80;99.90;;;;;;6254190;28;20474;-63
2021/10/02 05:00:38;;;;;;;16.60;13.40;;;11.70;99.90;;;;;;6253899;28;20471;-63
2021/10/02 05:03:42;;;;;;;15.00;12.60;;;11.70;99.90;;;;;;6253547;28;20475;-63
2021/10/02 05:06:46;;;;;;;15.03;12.97;;;11.80;99.90;;;;;;6253748;28;20536;-63
2021/10/02 05:09:49;;;;;;;19.57;13.73;;;11.70;99.90;;;;;;6253190;28;20550;-63
2021/10/02 05:12:52;;;;;;;16.47;12.77;;;11.70;99.90;;;;;;6253555;28;20540;-63
2021/10/02 05:15:55;;;;;;;15.50;13.30;;;11.70;99.90;;;;;;6253484;28;20478;-63
2021/10/02 05:18:59;;;;;;;19.03;13.63;;;11.70;99.90;;;;;;6253518;28;20471;-63
2021/10/02 05:22:03;;;;;;;16.90;13.23;;;11.80;99.90;;;;;;6253024;28;20866;-63
2021/10/02 05:25:08;;;;;;;17.47;14.30;;;11.80;99.90;;;;;;6252110;28;20494;-63
2021/10/02 05:28:11;;;;;;;18.23;13.83;;;11.80;99.90;;;;;;6253846;28;20490;-63
2021/10/02 05:31:16;;;;;;;19.27;14.20;;;11.80;99.90;;;;;;6253102;28;20478;-63
2021/10/02 05:34:19;;;;;;;16.93;14.07;;;11.80;99.90;;;;;;6253038;28;20897;-63
2021/10/02 05:37:24;;;;;;;18.80;13.30;;;11.80;99.90;;;;;;6248234;28;20479;-64
2021/10/02 05:40:28;;;;;;;15.07;13.03;;;11.80;99.90;;;;;;6252606;28;20483;-64
2021/10/02 05:43:31;;;;;;;14.10;12.60;;;11.90;99.90;;;;;;6252704;28;20479;-63
2021/10/02 05:46:34;;;;;;;17.07;13.83;;;11.90;99.90;;;;;;6252611;28;20471;-63
2021/10/02 05:49:41;;;;;;;17.43;13.63;;;12.00;99.90;;;;;;6252630;28;20564;-63
2021/10/02 05:52:46;;;;;;;18.83;14.60;;;12.00;99.90;;;;;;6252563;28;20482;-63
2021/10/02 05:55:49;;;;;;;18.27;14.10;;;12.10;99.90;;;;;;6252484;28;20479;-63
2021/10/02 05:58:52;;;;;;;14.43;12.93;;;12.20;99.90;;;;;;6252517;28;20481;-63
2021/10/02 06:01:55;;;;;;;17.20;13.30;;;12.30;99.90;;;;;;6252217;28;20486;-63
2021/10/02 06:04:58;;;;;;;20.03;14.50;;;12.30;99.90;;;;;;6252638;28;20490;-63
2021/10/02 06:08:04;;;;;;;17.20;13.53;;;12.40;99.90;;;;;;6251902;28;21056;-63
2021/10/02 06:11:07;;;;;;;18.50;14.37;;;12.50;99.90;;;;;;6252150;28;20478;-63
2021/10/02 06:14:10;;;;;;;20.40;14.23;;;12.60;99.90;;;;;;6251929;28;20471;-63
2021/10/02 06:17:13;;;;;;;19.83;12.93;;;12.80;99.90;;;;;;6251854;28;20550;-63
2021/10/02 06:20:17;;;;;;;16.80;14.07;;;12.90;99.90;;;;;;6252096;28;20824;-63
2021/10/02 06:23:22;;;;;;;17.07;14.80;;;13.00;99.90;;;;;;6251386;28;20479;-63
2021/10/02 06:26:25;;;;;;;17.20;15.13;;;13.10;99.90;;;;;;6251928;28;20478;-63
2021/10/02 06:29:28;;;;;;;16.80;14.43;;;13.20;99.90;;;;;;6251772;28;20474;-63
2021/10/02 06:32:31;;;;;;;23.33;15.93;;;13.30;99.90;;;;;;6251488;28;20479;-64
2021/10/02 06:35:35;;;;;;;16.77;14.00;;;13.40;99.90;;;;;;6251282;28;20971;-63
2021/10/02 06:38:39;;;;;;;21.40;14.10;;;13.50;99.90;;;;;;6251179;28;20466;-63
2021/10/02 06:41:43;;;;;;;16.10;13.70;;;13.70;99.90;;;;;;6251465;28;20786;-63
2021/10/02 06:44:46;;;;;;;15.07;13.20;;;13.90;99.90;;;;;;6246654;28;20487;-63
2021/10/02 06:47:49;;;;;;;17.37;12.27;;;14.00;99.90;;;;;;6251515;28;20951;-63
2021/10/02 06:50:52;;;;;;;16.10;13.10;;;14.10;99.90;;;;;;6250652;28;21032;-63
2021/10/02 06:53:57;;;;;;;14.00;12.50;;;14.20;99.90;;;;;;6251423;28;20493;-63
2021/10/02 06:57:00;;;;;;;12.97;11.57;;;14.40;99.90;;;;;;6251238;28;20482;-63
2021/10/02 07:00:05;;;;;;;14.80;13.20;;;14.50;99.90;;;;;;6251269;28;20489;-63
2021/10/02 07:03:08;;;;;;;14.80;12.87;;;14.70;99.90;;;;;;6251381;28;20483;-63
2021/10/02 07:06:11;;;;;;;15.27;12.90;;;14.80;99.90;;;;;;6251541;28;20478;-63
2021/10/02 07:09:16;;;;;;;14.97;13.47;;;15.00;99.90;;;;;;6250221;28;20538;-63
2021/10/02 07:12:19;;;;;;;19.57;14.13;;;15.20;99.90;;;;;;6250947;28;20954;-64
2021/10/02 07:15:22;;;;;;;17.53;14.20;;;15.70;99.90;;;;;;6251027;28;20450;-64
2021/10/02 07:18:26;;;;;;;16.43;13.30;;;16.80;99.90;;;;;;6250451;28;20798;-64
2021/10/02 07:21:29;;;;;;;15.80;13.83;;;18.60;99.00;;;;;;6250335;28;20467;-64
2021/10/02 07:24:34;;;;;;;17.53;15.37;;;19.00;96.60;;;;;;6250678;28;20459;-64
2021/10/02 07:27:37;;;;;;;16.47;12.87;;;18.90;95.40;;;;;;6250920;28;20471;-63
2021/10/02 07:30:41;;;;;;;17.23;14.23;;;18.60;95.70;;;;;;6250702;28;20470;-63
2021/10/02 07:33:44;;;;;;;16.33;12.80;;;18.60;96.40;;;;;;6250997;28;20227;-63
2021/10/02 07:36:48;;;;;;;14.97;13.47;;;20.00;95.40;;;;;;6250472;28;20311;-64
2021/10/02 07:39:52;;;;;;;16.07;14.47;;;23.00;91.20;;;;;;6250422;28;20228;-64
2021/10/02 07:42:56;;;;;;;15.80;13.13;;;25.20;77.40;;;;;;6250376;28;20254;-64
2021/10/02 07:46:00;;;;;;;16.47;14.87;;;27.40;65.30;;;;;;6250556;28;20227;-64
2021/10/02 07:49:03;;;;;;;14.90;13.50;;;28.60;56.70;;;;;;6249964;28;20242;-64
2021/10/02 07:52:07;;;;;;;16.40;14.63;;;29.80;52.30;;;;;;6249878;28;20235;-64
2021/10/02 07:55:17;;;;;;;16.73;15.13;;;30.40;48.50;;;;;;6250122;28;20254;-64
2021/10/02 07:58:22;;;;;;;15.50;14.00;;;31.60;46.20;;;;;;6250183;28;20231;-64
2021/10/02 08:01:28;;;;;;;16.75;15.05;;;32.60;43.40;;;;;;6250220;28;20239;-65
2021/10/02 08:04:32;;;;;;;14.88;13.68;;;33.60;41.10;;;;;;6249871;28;20316;-64
2021/10/02 08:07:37;;;;;;;16.50;14.00;;;34.40;38.60;;;;;;6249977;28;20525;-64
2021/10/02 08:10:41;;;;;;;14.52;13.07;;;35.20;36.60;;;;;;6250368;28;20227;-64
2021/10/02 08:13:45;;;;;;;16.20;14.70;;;36.10;34.70;;;;;;6250063;28;20231;-64
2021/10/02 08:16:52;;;;;;;15.00;13.80;;;36.50;33.60;;;;;;6250123;28;20231;-64
2021/10/02 08:20:00;;;;;;;15.07;13.68;;;36.60;32.60;;;;;;6249968;28;20235;-64
2021/10/02 08:23:04;;;;;;;13.80;12.55;;;36.80;32.80;;;;;;6249551;28;20580;-64
2021/10/02 08:26:14;;;;;;;14.95;13.75;;;37.90;31.90;;;;;;6250067;28;20223;-65
2021/10/02 08:29:17;;;;;;;15.05;13.63;;;38.80;29.70;;;;;;6250105;28;20228;-66
2021/10/02 08:32:21;;;;;;;15.63;14.15;;;38.80;29.40;;;;;;6249801;28;20231;-65
2021/10/02 08:35:24;;;;;;;15.52;14.10;;;39.40;29.00;;;;;;6249724;28;20227;-65
2021/10/02 08:38:27;;;;;;;14.02;12.80;;;38.70;29.30;;;;;;6249723;28;20572;-64
2021/10/02 08:41:32;;;;;;;14.88;13.70;;;38.90;28.90;;;;;;6249296;28;20227;-65
2021/10/02 08:44:35;;;;;;;14.77;13.48;;;39.40;28.30;;;;;;6249843;28;20660;-66
2021/10/02 08:47:40;;;;;;;14.48;13.27;;;39.90;27.90;;;;;;6250095;28;20239;-65
2021/10/02 08:50:45;;;;;;;14.18;12.98;;;40.40;27.50;;;;;;6249248;28;20243;-64
2021/10/02 08:53:53;;;;;;;12.98;11.85;;;40.90;26.70;;;;;;6249841;28;20234;-64
2021/10/02 08:56:58;;;;;;;13.68;12.48;;;41.50;26.30;;;;;;6249511;28;20555;-64
2021/10/02 09:00:03;;;;;;;13.07;11.88;;;42.10;25.30;;;;;;6249988;28;20236;-65
2021/10/02 09:03:06;;;;;;;12.00;11.00;;;42.10;25.00;;;;;;6253559;28;20677;-65
2021/10/02 09:06:10;;;;;;;10.25;9.48;;;41.60;25.10;;;;;;6253657;28;20235;-65
2021/10/02 09:09:14;;;;;;;9.77;9.07;;;42.10;24.60;;;;;;6253510;28;20235;-65
2021/10/02 09:12:20;;;;;;;10.50;9.75;;;42.50;23.20;;;;;;6253859;28;20232;-65
2021/10/02 09:15:23;;;;;;;11.23;10.43;;;43.00;23.00;;;;;;6253176;28;20489;-64
2021/10/02 09:18:26;;;;;;;11.70;10.80;;;42.90;22.60;;;;;;6253514;28;20205;-65
2021/10/02 09:21:29;;;;;;;12.70;11.68;;;42.80;22.80;;;;;;6252978;28;20231;-65
2021/10/02 09:24:34;;;;;;;13.00;11.38;;;42.80;23.10;;;;;;6253118;28;20621;-64
2021/10/02 09:27:39;;;;;;;11.77;10.82;;;43.60;22.50;;;;;;6253338;28;20233;-65
2021/10/02 09:30:46;;;;;;;11.75;10.85;;;43.80;22.00;;;;;;6253034;28;20236;-65
2021/10/02 09:33:49;;;;;;;11.85;10.95;;;44.00;21.70;;;;;;6253254;28;20223;-65
2021/10/02 09:36:53;;;;;;;11.88;11.02;;;42.30;22.20;;;;;;6252816;28;20695;-65
2021/10/02 09:39:59;;;;;;;11.63;10.75;;;39.80;24.00;;;;;;6252851;28;20235;-65
2021/10/02 09:43:04;;;;;;;12.77;11.77;;;40.50;23.70;;;;;;6253339;28;20234;-64
2021/10/02 09:46:08;;;;;;;11.85;10.93;;;41.80;22.90;;;;;;6252667;28;20239;-64
2021/10/02 09:49:11;;;;;;;12.60;11.70;;;41.20;22.60;;;;;;6252855;28;20608;-64
2021/10/02 09:52:31;;;;;;;11.50;10.60;;;40.40;23.40;;;;;;6252409;28;20232;-64
2021/10/02 09:55:36;;;;;;;12.27;11.38;;;40.00;23.50;;;;;;6253139;28;20239;-65
2021/10/02 09:58:41;;;;;;;12.30;11.40;;;39.80;24.30;;;;;;6252259;28;20235;-66
2021/10/02 10:01:46;;;;;;;12.93;11.93;;;40.60;23.60;;;;;;6252883;28;20234;-64
2021/10/02 10:04:54;;;;;;;12.50;11.60;;;41.20;23.30;;;;;;6252535;28;20239;-65
2021/10/02 10:07:58;;;;;;;13.13;12.13;;;41.10;22.90;;;;;;6252202;28;20232;-65
2021/10/02 10:11:06;;;;;;;11.98;10.98;;;40.00;23.70;;;;;;6251644;28;20240;-65
2021/10/02 10:14:18;;;;;;;11.98;11.07;;;39.10;24.70;;;;;;6252700;28;20231;-65
2021/10/02 10:17:21;;;;;;;13.63;12.63;;;40.20;24.10;;;;;;6251825;28;20228;-64
2021/10/02 10:20:32;;;;;;;12.40;11.50;;;41.30;23.10;;;;;;6251951;28;20243;-65
2021/10/02 10:23:37;;;;;;;12.40;11.50;;;41.70;22.90;;;;;;6252619;28;20231;-65
2021/10/02 10:26:45;;;;;;;12.75;11.80;;;41.70;22.90;;;;;;6252106;28;20232;-64
2021/10/02 10:29:49;;;;;;;12.60;11.70;;;40.80;23.10;;;;;;6251884;28;20573;-64
2021/10/02 10:33:02;;;;;;;13.45;12.48;;;40.50;23.10;;;;;;6251610;28;20285;-66
2021/10/02 10:36:06;;;;;;;12.65;11.68;;;40.10;23.60;;;;;;6251468;28;20231;-65
2021/10/02 10:39:09;;;;;;;12.25;11.35;;;39.50;24.10;;;;;;6251681;28;20236;-65
2021/10/02 10:42:12;;;;;;;12.70;11.70;;;38.80;24.30;;;;;;6251755;28;20552;-64
2021/10/02 10:45:16;;;;;;;12.25;11.35;;;37.20;25.60;;;;;;6250928;28;20531;-64
2021/10/02 10:48:21;;;;;;;11.70;10.80;;;35.60;26.80;;;;;;6251458;28;20283;-64
2021/10/02 10:51:28;;;;;;;12.38;11.38;;;35.10;27.60;;;;;;6251265;28;20235;-66
2021/10/02 10:54:32;;;;;;;12.95;11.90;;;35.00;27.50;;;;;;6241604;28;20211;-65
2021/10/02 10:57:41;;;;;;;12.25;11.27;;;34.00;28.40;;;;;;6251597;28;20535;-65
2021/10/02 11:00:45;;;;;;;12.23;11.32;;;34.10;28.40;;;;;;6251009;28;20227;-66
2021/10/02 11:03:49;;;;;;;13.38;12.38;;;34.90;28.20;;;;;;6251577;28;20250;-66
2021/10/02 11:06:55;;;;;;;11.43;10.52;;;35.30;27.70;;;;;;6250996;28;20238;-65
2021/10/02 11:09:58;;;;;;;12.13;11.23;;;37.30;26.40;;;;;;6251305;28;20228;-65
2021/10/02 11:13:01;;;;;;;13.27;12.27;;;39.50;24.70;;;;;;6281918;22;20245;-65
2021/10/02 11:19:35;;;;;;;14.15;12.93;;;37.90;25.10;;;;;;6310695;27;20539;-63
2021/10/02 11:23:21;;;;;;;12.70;11.70;;;35.20;27.60;;;;;;6284490;28;20308;-63
2021/10/02 11:26:27;;;;;;;13.60;12.50;;;32.40;29.50;;;;;;6216120;28;20231;-64
2021/10/02 11:29:32;;;;;;;13.10;12.00;;;31.90;30.90;;;;;;6271658;28;20320;-65
2021/10/02 11:32:36;;;;;;;12.35;11.38;;;33.60;29.10;;;;;;6271577;28;20234;-64
2021/10/02 11:35:40;;;;;;;12.48;11.52;;;35.00;27.90;;;;;;6271401;28;20241;-64
2021/10/02 11:38:44;;;;;;;12.90;11.90;;;35.80;26.60;;;;;;6271433;28;20264;-64
2021/10/02 11:42:12;;;;;;;12.57;11.57;;;34.90;27.40;;;;;;6271263;28;20686;-64
2021/10/02 11:45:34;;;;;;;11.70;10.85;;;35.80;27.00;;;;;;6271232;28;20224;-64
2021/10/02 11:48:45;;;;;;;11.63;10.73;;;37.30;25.70;;;;;;6271008;28;20590;-64
2021/10/02 11:52:14;;;;;;;11.95;11.05;;;38.50;24.60;;;;;;6270858;28;20242;-64
2021/10/02 11:55:48;;;;;;;12.43;11.52;;;39.10;23.90;;;;;;6257335;28;20238;-64
2021/10/02 11:58:54;;;;;;;13.23;12.23;;;39.80;23.80;;;;;;6266857;28;20246;-64
2021/10/02 12:02:04;;;;;;;12.70;11.80;;;40.10;23.50;;;;;;6270792;28;20231;-64
2021/10/02 12:05:08;;;;;;;11.88;10.98;;;39.30;23.50;;;;;;6271144;28;20245;-65
2021/10/02 12:08:34;;;;;;;12.75;11.75;;;38.00;24.50;;;;;;6271068;28;20318;-64
2021/10/02 12:11:42;;;;;;;13.23;12.23;;;35.60;26.50;;;;;;6271270;28;20227;-65
2021/10/02 12:14:57;;;;;;;13.52;12.43;;;35.40;27.10;;;;;;6270468;28;20714;-65
2021/10/02 12:18:01;;;;;;;13.40;12.30;;;36.00;26.90;;;;;;6270480;28;20639;-64
2021/10/02 12:21:04;;;;;;;12.30;11.32;;;36.20;26.60;;;;;;6270640;28;20300;-64
2021/10/02 12:24:16;;;;;;;12.93;11.93;;;36.70;26.40;;;;;;6270343;28;20250;-64
2021/10/02 12:27:20;;;;;;;12.57;11.55;;;37.10;26.00;;;;;;6270117;28;20211;-64
2021/10/02 12:30:23;;;;;;;12.60;11.57;;;36.60;25.70;;;;;;6256493;28;20227;-65
2021/10/02 12:33:26;;;;;;;12.73;11.55;;;36.20;26.30;;;;;;6253602;28;20207;-64
2021/10/02 12:36:39;;;;;;;12.40;11.40;;;35.40;27.00;;;;;;6253657;28;20219;-64
2021/10/02 12:39:48;;;;;;;13.00;12.00;;;34.20;27.40;;;;;;6253815;28;20235;-64
2021/10/02 12:42:53;;;;;;;13.23;12.13;;;34.00;28.00;;;;;;6253320;28;20231;-64
2021/10/02 12:45:57;;;;;;;13.00;11.90;;;34.30;28.00;;;;;;6253676;28;20250;-64
2021/10/02 12:49:00;;;;;;;13.90;12.80;;;33.10;29.30;;;;;;6253708;28;20242;-64
2021/10/02 12:52:04;;;;;;;14.60;13.30;;;31.10;31.70;;;;;;6253770;28;20243;-64
2021/10/02 12:55:12;;;;;;;14.03;12.93;;;29.70;33.70;;;;;;6253283;28;20242;-64
2021/10/02 12:58:16;;;;;;;14.07;12.77;;;28.60;35.50;;;;;;6252882;28;20231;-64
2021/10/02 13:01:19;;;;;;;15.30;13.90;;;27.90;36.70;;;;;;6252724;28;20757;-64
2021/10/02 13:04:23;;;;;;;15.30;14.00;;;26.80;38.80;;;;;;6253120;28;20241;-63
2021/10/02 13:07:29;;;;;;;14.53;13.23;;;26.00;40.70;;;;;;6253091;28;20297;-64
2021/10/02 13:10:38;;;;;;;15.20;13.83;;;25.50;42.00;;;;;;6252489;28;20711;-64
2021/10/02 13:13:41;;;;;;;14.40;13.10;;;24.60;43.10;;;;;;6253503;28;20228;-64
2021/10/02 13:16:44;;;;;;;14.93;13.60;;;24.20;44.00;;;;;;6253878;28;20239;-63
2021/10/02 13:19:48;;;;;;;14.70;13.30;;;23.80;44.90;;;;;;6253640;28;20243;-63
2021/10/02 13:22:51;;;;;;;14.03;12.83;;;23.50;45.90;;;;;;6253336;28;20235;-63
2021/10/02 13:25:58;;;;;;;14.77;13.30;;;23.20;46.70;;;;;;6253162;28;20668;-63
2021/10/02 13:29:01;;;;;;;15.50;14.00;;;23.10;47.20;;;;;;6252550;28;20224;-63
2021/10/02 13:32:15;;;;;;;15.37;13.97;;;23.30;47.40;;;;;;6252894;28;20232;-63
2021/10/02 13:35:22;;;;;;;14.00;12.80;;;23.40;47.60;;;;;;6252511;28;20232;-63
2021/10/02 13:38:36;;;;;;;14.87;13.57;;;23.50;47.50;;;;;;6252895;28;20228;-63
2021/10/02 13:41:46;;;;;;;15.27;13.77;;;23.60;47.50;;;;;;6250933;28;20692;-63
2021/10/02 13:44:54;;;;;;;15.63;14.13;;;23.70;47.20;;;;;;6251639;28;20231;-63
2021/10/02 13:48:00;;;;;;;14.27;12.90;;;23.60;46.80;;;;;;6252250;28;20251;-63
2021/10/02 13:51:03;;;;;;;15.33;13.93;;;23.40;47.80;;;;;;6251599;28;20726;-63
2021/10/02 13:54:06;;;;;;;15.27;13.60;;;23.20;48.00;;;;;;6251692;28;20599;-64
2021/10/02 13:57:11;;;;;;;15.30;13.80;;;23.10;47.50;;;;;;6251944;28;20228;-63
2021/10/02 14:00:15;;;;;;;15.13;13.73;;;22.90;48.30;;;;;;6251834;28;20657;-63
2021/10/02 14:03:18;;;;;;;14.63;13.13;;;22.20;49.60;;;;;;6251421;28;20246;-64
2021/10/02 14:06:21;;;;;;;13.10;11.80;;;21.80;51.00;;;;;;6268075;28;20207;-63
2021/10/02 14:09:24;;;;;;;14.03;12.70;;;21.70;51.10;;;;;;6276325;28;20204;-64
2021/10/02 14:12:29;;;;;;;13.80;12.50;;;21.70;50.80;;;;;;6276206;28;20223;-63
2021/10/02 14:15:32;;;;;;;15.63;14.03;;;21.60;51.50;;;;;;6276494;28;20218;-64
2021/10/02 14:18:35;;;;;;;14.17;12.77;;;21.50;52.00;;;;;;6275688;28;20254;-64
2021/10/02 14:21:39;;;;;;;15.37;13.97;;;21.20;53.30;;;;;;6275731;28;20257;-64
2021/10/02 14:24:42;;;;;;;14.37;12.97;;;21.10;53.70;;;;;;6276084;28;20373;-64
2021/10/02 14:27:46;;;;;;;15.50;13.10;;;21.10;53.70;;;;;;6275763;28;20302;-63
2021/10/02 14:30:50;;;;;;;14.83;13.27;;;21.10;53.60;;;;;;6275752;28;20228;-63
2021/10/02 14:33:53;;;;;;;15.07;13.37;;;20.90;53.90;;;;;;6275720;28;20320;-64
2021/10/02 14:36:56;;;;;;;14.20;12.70;;;20.70;54.80;;;;;;6275551;28;20228;-64
2021/10/02 14:39:59;;;;;;;14.60;13.20;;;20.90;54.80;;;;;;6275210;28;20238;-63
2021/10/02 14:43:04;;;;;;;15.03;13.63;;;21.00;55.50;;;;;;6275370;28;20239;-64
2021/10/02 14:46:07;;;;;;;14.40;13.00;;;20.90;55.80;;;;;;6275789;28;20238;-64
2021/10/02 14:49:10;;;;;;;13.90;12.50;;;21.00;55.30;;;;;;6275901;28;20242;-64
2021/10/02 14:52:15;;;;;;;14.53;13.13;;;21.00;55.30;;;;;;6275404;28;20228;-64
2021/10/02 14:55:18;;;;;;;15.20;13.60;;;21.10;55.60;;;;;;6275103;28;20656;-64
2021/10/02 14:58:24;;;;;;;17.90;14.23;;;20.80;56.70;;;;;;6275399;28;20239;-63
2021/10/02 15:01:28;;;;;;;15.47;14.00;;;20.60;57.60;;;;;;6275116;28;20246;-63
2021/10/02 15:04:35;;;;;;;16.53;14.90;;;20.60;58.20;;;;;;6275259;28;20361;-63
2021/10/02 15:07:39;;;;;;;16.57;14.90;;;20.60;58.70;;;;;;6274822;28;20231;-63
2021/10/02 15:10:44;;;;;;;16.10;14.50;;;20.50;59.20;;;;;;6274930;28;20239;-64
2021/10/02 15:13:49;;;;;;;16.80;15.07;;;20.40;59.80;;;;;;6274673;28;20236;-63
2021/10/02 15:16:52;;;;;;;18.30;16.50;;;20.20;61.00;;;;;;6274464;28;20672;-63
2021/10/02 15:19:55;;;;;;;17.40;15.70;;;19.90;62.20;;;;;;6274557;28;20234;-64
2021/10/02 15:23:02;;;;;;;18.03;16.33;;;19.90;63.10;;;;;;6274701;28;20552;-63
2021/10/02 15:26:07;;;;;;;17.90;15.70;;;19.80;63.80;;;;;;6274642;28;20232;-64
2021/10/02 15:29:12;;;;;;;18.97;17.10;;;19.70;64.90;;;;;;6274524;28;20242;-63
2021/10/02 15:32:16;;;;;;;20.00;17.93;;;19.60;66.00;;;;;;6274768;28;20285;-63
2021/10/02 15:35:21;;;;;;;18.60;16.67;;;19.40;67.20;;;;;;6274817;28;20242;-67
2021/10/02 15:38:24;;;;;;;18.70;16.80;;;19.30;68.40;;;;;;6274948;28;20238;-64
2021/10/02 15:41:28;;;;;;;19.00;17.10;;;19.20;68.80;;;;;;6274488;28;20253;-64
2021/10/02 15:44:34;;;;;;;19.70;17.80;;;19.20;70.00;;;;;;6274926;28;20231;-65
2021/10/02 15:47:37;;;;;;;19.03;17.00;;;19.10;70.80;;;;;;6274448;28;20228;-63
2021/10/02 15:50:46;;;;;;;18.60;16.60;;;19.10;71.70;;;;;;6274504;28;20549;-63
2021/10/02 15:53:49;;;;;;;21.93;18.63;;;19.10;72.50;;;;;;6274173;28;20656;-63
2021/10/02 15:56:55;;;;;;;22.20;19.63;;;19.10;73.50;;;;;;6274421;28;20232;-63
2021/10/02 16:00:04;;;;;;;18.07;16.23;;;19.10;74.30;;;;;;6274532;28;20559;-63
2021/10/02 16:03:09;;;;;;;19.83;17.93;;;19.10;76.00;;;;;;6273955;28;20703;-64
2021/10/02 16:06:20;;;;;;;21.90;18.77;;;19.10;77.10;;;;;;6278969;28;20242;-63
2021/10/02 16:09:24;;;;;;;20.80;18.67;;;18.90;79.10;;;;;;6274218;28;20220;-63
2021/10/02 16:12:32;;;;;;;20.50;18.50;;;18.80;80.60;;;;;;6278879;28;20231;-63
2021/10/02 16:15:39;;;;;;;18.77;16.87;;;18.70;81.80;;;;;;6279031;28;20219;-63
2021/10/02 16:18:42;;;;;;;20.20;18.10;;;18.50;83.00;;;;;;6279040;28;20234;-63
2021/10/02 16:21:46;;;;;;;22.50;19.67;;;18.50;83.60;;;;;;6278146;28;20246;-64
2021/10/02 16:24:49;;;;;;;21.50;19.30;;;18.50;84.20;;;;;;6278482;28;20239;-62
2021/10/02 16:27:52;;;;;;;19.87;17.77;;;18.50;84.50;;;;;;6278790;28;20486;-63
2021/10/02 16:30:57;;;;;;;20.53;18.43;;;18.50;84.80;;;;;;6278425;28;20246;-63
2021/10/02 16:34:00;;;;;;;22.00;19.70;;;18.50;84.90;;;;;;6278305;28;20523;-62